sensor_id;sensor_type;location;lat;lon;timestamp;temperature;humidity
20862;DHT22;10591;52.532;13.348;2024-01-15T00:00:26;2.21;84.44
20862;DHT22;10591;52.532;13.348;2024-01-15T00:02:57;2.00;85.17
20862;DHT22;10591;52.532;13.348;2024-01-15T00:05:27;1.98;85.34
20862;DHT22;10591;52.532;13.348;2024-01-15T00:07:58;1.98;85.47
20862;DHT22;10591;52.532;13.348;2024-01-15T00:10:28;1.97;85.73
20862;DHT22;10591;52.532;13.348;2024-01-15T00:13:00;1.99;85.12
20862;DHT22;10591;52.532;13.348;2024-01-15T00:15:30;2.06;85.09
20862;DHT22;10591;52.532;13.348;2024-01-15T00:18:02;1.97;85.25
20862;DHT22;10591;52.532;13.348;2024-01-15T00:20:33;1.94;85.37
20862;DHT22;10591;52.532;13.348;2024-01-15T00:23:06;2.04;84.87
20862;DHT22;10591;52.532;13.348;2024-01-15T00:25:36;2.12;84.71
20862;DHT22;10591;52.532;13.348;2024-01-15T00:28:07;2.02;84.48
20862;DHT22;10591;52.532;13.348;2024-01-15T00:30:37;2.12;84.46
20862;DHT22;10591;52.532;13.348;2024-01-15T00:33:08;2.12;84.26
20862;DHT22;10591;52.532;13.348;2024-01-15T00:35:41;1.98;84.76
20862;DHT22;10591;52.532;13.348;2024-01-15T00:38:13;2.06;84.36
20862;DHT22;10591;52.532;13.348;2024-01-15T00:40:44;2.10;84.21
20862;DHT22;10591;52.532;13.348;2024-01-15T00:43:16;2.08;84.12
20862;DHT22;10591;52.532;13.348;2024-01-15T00:45:49;2.00;84.36
20862;DHT22;10591;52.532;13.348;2024-01-15T00:48:20;2.09;84.11
20862;DHT22;10591;52.532;13.348;2024-01-15T00:50:52;2.06;84.11
20862;DHT22;10591;52.532;13.348;2024-01-15T00:53:25;2.02;84.03
20862;DHT22;10591;52.532;13.348;2024-01-15T00:55:57;2.07;84.07
20862;DHT22;10591;52.532;13.348;2024-01-15T00:58:28;1.96;84.27
20862;DHT22;10591;52.532;13.348;2024-01-15T01:00:58;1.96;84.72
20862;DHT22;10591;52.532;13.348;2024-01-15T01:03:29;1.92;84.84
20862;DHT22;10591;52.532;13.348;2024-01-15T01:06:00;1.83;85.17
20862;DHT22;10591;52.532;13.348;2024-01-15T01:08:30;1.84;85.44
20862;DHT22;10591;52.532;13.348;2024-01-15T01:11:01;1.78;85.71
20862;DHT22;10591;52.532;13.348;2024-01-15T01:13:32;1.60;86.67
20862;DHT22;10591;52.532;13.348;2024-01-15T01:16:03;1.63;86.66
20862;DHT22;10591;52.532;13.348;2024-01-15T01:18:34;1.58;87.17
20862;DHT22;10591;52.532;13.348;2024-01-15T01:21:06;1.58;87.62
20862;DHT22;10591;52.532;13.348;2024-01-15T01:23:36;1.44;87.91
20862;DHT22;10591;52.532;13.348;2024-01-15T01:26:07;1.45;88.08
20862;DHT22;10591;52.532;13.348;2024-01-15T01:28:38;1.52;88.18
20862;DHT22;10591;52.532;13.348;2024-01-15T01:31:08;1.40;87.98
20862;DHT22;10591;52.532;13.348;2024-01-15T01:33:39;1.40;88.20
20862;DHT22;10591;52.532;13.348;2024-01-15T01:36:10;1.54;88.06
20862;DHT22;10591;52.532;13.348;2024-01-15T01:38:43;1.44;88.07
20862;DHT22;10591;52.532;13.348;2024-01-15T01:41:13;1.38;88.11
20862;DHT22;10591;52.532;13.348;2024-01-15T01:43:44;1.22;88.75
20862;DHT22;10591;52.532;13.348;2024-01-15T01:46:17;1.10;89.35
20862;DHT22;10591;52.532;13.348;2024-01-15T01:48:47;1.14;89.49
20862;DHT22;10591;52.532;13.348;2024-01-15T01:51:19;1.16;89.24
20862;DHT22;10591;52.532;13.348;2024-01-15T01:53:51;1.14;89.57
20862;DHT22;10591;52.532;13.348;2024-01-15T01:56:22;1.22;89.42
20862;DHT22;10591;52.532;13.348;2024-01-15T01:58:52;1.08;89.56
20862;DHT22;10591;52.532;13.348;2024-01-15T02:01:23;1.25;89.34
20862;DHT22;10591;52.532;13.348;2024-01-15T02:03:54;1.20;89.27
20862;DHT22;10591;52.532;13.348;2024-01-15T02:06:26;1.20;89.04
20862;DHT22;10591;52.532;13.348;2024-01-15T02:08:57;1.16;89.03
20862;DHT22;10591;52.532;13.348;2024-01-15T02:11:27;1.24;88.77
20862;DHT22;10591;52.532;13.348;2024-01-15T02:13:58;1.26;88.61
20862;DHT22;10591;52.532;13.348;2024-01-15T02:16:28;1.14;88.09
20862;DHT22;10591;52.532;13.348;2024-01-15T02:18:59;1.08;88.41
20862;DHT22;10591;52.532;13.348;2024-01-15T02:21:31;1.06;88.24
20862;DHT22;10591;52.532;13.348;2024-01-15T02:24:02;1.22;87.70
20862;DHT22;10591;52.532;13.348;2024-01-15T02:26:32;1.06;88.24
20862;DHT22;10591;52.532;13.348;2024-01-15T02:29:09;1.14;87.27
20862;DHT22;10591;52.532;13.348;2024-01-15T02:31:40;1.19;87.33
20862;DHT22;10591;52.532;13.348;2024-01-15T02:34:11;1.16;86.80
20862;DHT22;10591;52.532;13.348;2024-01-15T02:36:42;1.17;86.83
20862;DHT22;10591;52.532;13.348;2024-01-15T02:39:12;1.22;86.38
20862;DHT22;10591;52.532;13.348;2024-01-15T02:41:43;1.21;86.22
20862;DHT22;10591;52.532;13.348;2024-01-15T02:44:13;1.07;86.65
20862;DHT22;10591;52.532;13.348;2024-01-15T02:46:44;1.12;86.49
20862;DHT22;10591;52.532;13.348;2024-01-15T02:49:14;1.12;86.47
20862;DHT22;10591;52.532;13.348;2024-01-15T02:51:45;1.16;86.37
20862;DHT22;10591;52.532;13.348;2024-01-15T02:54:16;1.17;86.13
20862;DHT22;10591;52.532;13.348;2024-01-15T02:56:47;1.26;85.64
20862;DHT22;10591;52.532;13.348;2024-01-15T02:59:17;1.31;85.79
20862;DHT22;10591;52.532;13.348;2024-01-15T03:01:48;1.30;85.94
20862;DHT22;10591;52.532;13.348;2024-01-15T03:04:18;1.44;85.34
20862;DHT22;10591;52.532;13.348;2024-01-15T03:06:49;1.40;85.37
20862;DHT22;10591;52.532;13.348;2024-01-15T03:09:20;1.47;85.03
20862;DHT22;10591;52.532;13.348;2024-01-15T03:11:50;1.40;84.93
20862;DHT22;10591;52.532;13.348;2024-01-15T03:14:21;1.48;83.97
20862;DHT22;10591;52.532;13.348;2024-01-15T03:16:53;1.52;83.62
20862;DHT22;10591;52.532;13.348;2024-01-15T03:19:26;1.50;84.11
20862;DHT22;10591;52.532;13.348;2024-01-15T03:21:57;1.52;83.98
20862;DHT22;10591;52.532;13.348;2024-01-15T03:24:27;1.40;84.49
20862;DHT22;10591;52.532;13.348;2024-01-15T03:26:58;1.42;84.69
20862;DHT22;10591;52.532;13.348;2024-01-15T03:29:29;1.44;84.23
20862;DHT22;10591;52.532;13.348;2024-01-15T03:32:00;1.58;83.99
20862;DHT22;10591;52.532;13.348;2024-01-15T03:34:30;1.59;83.37
20862;DHT22;10591;52.532;13.348;2024-01-15T03:37:01;1.52;83.91
20862;DHT22;10591;52.532;13.348;2024-01-15T03:39:31;1.54;83.70
20862;DHT22;10591;52.532;13.348;2024-01-15T03:42:03;1.52;83.57
20862;DHT22;10591;52.532;13.348;2024-01-15T03:44:33;1.49;83.52
20862;DHT22;10591;52.532;13.348;2024-01-15T03:47:07;1.59;83.27
20862;DHT22;10591;52.532;13.348;2024-01-15T03:49:37;1.54;83.08
20862;DHT22;10591;52.532;13.348;2024-01-15T03:52:08;1.57;83.07
20862;DHT22;10591;52.532;13.348;2024-01-15T03:54:39;1.57;83.29
20862;DHT22;10591;52.532;13.348;2024-01-15T03:57:09;1.68;82.34
20862;DHT22;10591;52.532;13.348;2024-01-15T03:59:41;1.64;82.56
20862;DHT22;10591;52.532;13.348;2024-01-15T04:02:12;1.59;82.96
20862;DHT22;10591;52.532;13.348;2024-01-15T04:04:43;1.59;83.16
20862;DHT22;10591;52.532;13.348;2024-01-15T04:07:14;1.53;82.83
20862;DHT22;10591;52.532;13.348;2024-01-15T04:09:44;1.64;82.76
20862;DHT22;10591;52.532;13.348;2024-01-15T04:12:15;1.68;82.62
20862;DHT22;10591;52.532;13.348;2024-01-15T04:14:45;1.60;82.80
20862;DHT22;10591;52.532;13.348;2024-01-15T04:17:16;1.68;82.61
20862;DHT22;10591;52.532;13.348;2024-01-15T04:19:47;1.70;82.55
20862;DHT22;10591;52.532;13.348;2024-01-15T04:22:18;1.60;82.34
20862;DHT22;10591;52.532;13.348;2024-01-15T04:24:48;1.64;82.47
20862;DHT22;10591;52.532;13.348;2024-01-15T04:27:19;1.62;82.69
20862;DHT22;10591;52.532;13.348;2024-01-15T04:29:49;1.60;82.57
20862;DHT22;10591;52.532;13.348;2024-01-15T04:32:20;1.73;82.67
20862;DHT22;10591;52.532;13.348;2024-01-15T04:34:50;1.70;82.48
20862;DHT22;10591;52.532;13.348;2024-01-15T04:37:22;1.68;82.27
20862;DHT22;10591;52.532;13.348;2024-01-15T04:39:53;1.67;82.50
20862;DHT22;10591;52.532;13.348;2024-01-15T04:42:24;1.71;82.02
20862;DHT22;10591;52.532;13.348;2024-01-15T04:44:58;1.78;81.70
20862;DHT22;10591;52.532;13.348;2024-01-15T04:47:27;1.79;81.40
20862;DHT22;10591;52.532;13.348;2024-01-15T04:50:00;1.68;81.88
20862;DHT22;10591;52.532;13.348;2024-01-15T04:52:30;1.68;81.42
20862;DHT22;10591;52.532;13.348;2024-01-15T04:55:01;1.72;81.68
20862;DHT22;10591;52.532;13.348;2024-01-15T04:57:32;1.73;81.57
20862;DHT22;10591;52.532;13.348;2024-01-15T05:00:02;1.72;81.54
20862;DHT22;10591;52.532;13.348;2024-01-15T05:02:34;1.76;81.81
20862;DHT22;10591;52.532;13.348;2024-01-15T05:05:05;1.80;81.10
20862;DHT22;10591;52.532;13.348;2024-01-15T05:07:37;1.82;80.94
20862;DHT22;10591;52.532;13.348;2024-01-15T05:10:07;1.79;81.30
20862;DHT22;10591;52.532;13.348;2024-01-15T05:12:38;1.86;80.74
20862;DHT22;10591;52.532;13.348;2024-01-15T05:15:09;1.74;81.23
20862;DHT22;10591;52.532;13.348;2024-01-15T05:17:39;1.74;81.38
20862;DHT22;10591;52.532;13.348;2024-01-15T05:20:11;1.78;81.46
20862;DHT22;10591;52.532;13.348;2024-01-15T05:22:41;1.74;82.03
20862;DHT22;10591;52.532;13.348;2024-01-15T05:25:12;1.82;81.87
20862;DHT22;10591;52.532;13.348;2024-01-15T05:27:43;1.84;81.69
20862;DHT22;10591;52.532;13.348;2024-01-15T05:30:14;1.74;81.94
20862;DHT22;10591;52.532;13.348;2024-01-15T05:32:44;1.73;81.64
20862;DHT22;10591;52.532;13.348;2024-01-15T05:35:15;1.76;81.72
20862;DHT22;10591;52.532;13.348;2024-01-15T05:37:46;1.79;81.54
20862;DHT22;10591;52.532;13.348;2024-01-15T05:40:16;1.92;80.94
20862;DHT22;10591;52.532;13.348;2024-01-15T05:42:47;1.94;80.76
20862;DHT22;10591;52.532;13.348;2024-01-15T05:45:17;1.93;80.78
20862;DHT22;10591;52.532;13.348;2024-01-15T05:47:48;2.04;80.76
20862;DHT22;10591;52.532;13.348;2024-01-15T05:50:19;1.99;80.61
20862;DHT22;10591;52.532;13.348;2024-01-15T05:52:49;2.04;80.60
20862;DHT22;10591;52.532;13.348;2024-01-15T05:55:20;1.88;81.84
20862;DHT22;10591;52.532;13.348;2024-01-15T05:57:51;1.93;82.49
20862;DHT22;10591;52.532;13.348;2024-01-15T06:00:21;1.77;83.25
20862;DHT22;10591;52.532;13.348;2024-01-15T06:02:52;1.74;83.58
20862;DHT22;10591;52.532;13.348;2024-01-15T06:05:22;1.74;83.67
20862;DHT22;10591;52.532;13.348;2024-01-15T06:07:53;1.82;83.30
20862;DHT22;10591;52.532;13.348;2024-01-15T06:10:24;1.78;83.05
20862;DHT22;10591;52.532;13.348;2024-01-15T06:12:54;1.80;82.73
20862;DHT22;10591;52.532;13.348;2024-01-15T06:15:25;1.84;82.42
20862;DHT22;10591;52.532;13.348;2024-01-15T06:17:55;1.84;82.49
20862;DHT22;10591;52.532;13.348;2024-01-15T06:20:26;1.75;82.54
20862;DHT22;10591;52.532;13.348;2024-01-15T06:22:56;1.80;82.09
20862;DHT22;10591;52.532;13.348;2024-01-15T06:25:27;1.89;81.75
20862;DHT22;10591;52.532;13.348;2024-01-15T06:27:57;2.03;81.36
20862;DHT22;10591;52.532;13.348;2024-01-15T06:30:28;1.95;81.67
20862;DHT22;10591;52.532;13.348;2024-01-15T06:32:59;1.96;81.76
20862;DHT22;10591;52.532;13.348;2024-01-15T06:35:30;1.98;82.04
20862;DHT22;10591;52.532;13.348;2024-01-15T06:38:00;1.88;82.34
20862;DHT22;10591;52.532;13.348;2024-01-15T06:40:31;1.92;82.38
20862;DHT22;10591;52.532;13.348;2024-01-15T06:43:02;1.94;82.31
20862;DHT22;10591;52.532;13.348;2024-01-15T06:45:32;1.98;81.91
20862;DHT22;10591;52.532;13.348;2024-01-15T06:48:03;2.00;82.00
20862;DHT22;10591;52.532;13.348;2024-01-15T06:50:34;2.04;81.46
20862;DHT22;10591;52.532;13.348;2024-01-15T06:53:05;1.98;82.09
20862;DHT22;10591;52.532;13.348;2024-01-15T06:55:37;2.07;81.26
20862;DHT22;10591;52.532;13.348;2024-01-15T06:58:07;2.01;81.47
20862;DHT22;10591;52.532;13.348;2024-01-15T07:00:38;1.94;81.78
20862;DHT22;10591;52.532;13.348;2024-01-15T07:03:11;1.96;81.58
20862;DHT22;10591;52.532;13.348;2024-01-15T07:05:41;2.02;81.36
20862;DHT22;10591;52.532;13.348;2024-01-15T07:08:12;2.08;80.72
20862;DHT22;10591;52.532;13.348;2024-01-15T07:10:43;2.14;80.29
20862;DHT22;10591;52.532;13.348;2024-01-15T07:13:13;2.10;79.82
20862;DHT22;10591;52.532;13.348;2024-01-15T07:15:44;2.14;80.06
20862;DHT22;10591;52.532;13.348;2024-01-15T07:18:15;2.14;79.89
20862;DHT22;10591;52.532;13.348;2024-01-15T07:20:47;2.12;79.75
20862;DHT22;10591;52.532;13.348;2024-01-15T07:23:18;2.14;79.59
20862;DHT22;10591;52.532;13.348;2024-01-15T07:25:49;2.16;79.14
20862;DHT22;10591;52.532;13.348;2024-01-15T07:28:21;2.20;79.13
20862;DHT22;10591;52.532;13.348;2024-01-15T07:30:52;2.28;78.81
20862;DHT22;10591;52.532;13.348;2024-01-15T07:33:25;2.24;79.18
20862;DHT22;10591;52.532;13.348;2024-01-15T07:35:56;2.26;78.81
20862;DHT22;10591;52.532;13.348;2024-01-15T07:38:28;2.26;78.81
20862;DHT22;10591;52.532;13.348;2024-01-15T07:40:58;2.26;78.45
20862;DHT22;10591;52.532;13.348;2024-01-15T07:43:29;2.28;78.88
20862;DHT22;10591;52.532;13.348;2024-01-15T07:46:01;2.18;79.27
20862;DHT22;10591;52.532;13.348;2024-01-15T07:48:32;2.30;79.17
20862;DHT22;10591;52.532;13.348;2024-01-15T07:51:04;2.31;78.79
20862;DHT22;10591;52.532;13.348;2024-01-15T07:53:34;2.35;78.85
20862;DHT22;10591;52.532;13.348;2024-01-15T07:56:05;2.22;79.79
20862;DHT22;10591;52.532;13.348;2024-01-15T07:58:35;2.36;79.19
20862;DHT22;10591;52.532;13.348;2024-01-15T08:01:06;2.24;79.25
20862;DHT22;10591;52.532;13.348;2024-01-15T08:03:39;2.28;79.22
20862;DHT22;10591;52.532;13.348;2024-01-15T08:06:11;2.40;78.79
20862;DHT22;10591;52.532;13.348;2024-01-15T08:08:42;2.40;78.91
20862;DHT22;10591;52.532;13.348;2024-01-15T08:11:14;2.38;78.79
20862;DHT22;10591;52.532;13.348;2024-01-15T08:13:44;2.38;79.05
20862;DHT22;10591;52.532;13.348;2024-01-15T08:16:15;2.36;78.71
20862;DHT22;10591;52.532;13.348;2024-01-15T08:18:47;2.46;78.75
20862;DHT22;10591;52.532;13.348;2024-01-15T08:21:19;2.48;78.69
20862;DHT22;10591;52.532;13.348;2024-01-15T08:23:50;2.35;79.04
20862;DHT22;10591;52.532;13.348;2024-01-15T08:26:21;2.38;78.98
20862;DHT22;10591;52.532;13.348;2024-01-15T08:28:52;2.58;78.66
20862;DHT22;10591;52.532;13.348;2024-01-15T08:31:22;2.50;78.65
20862;DHT22;10591;52.532;13.348;2024-01-15T08:33:53;2.50;78.51
20862;DHT22;10591;52.532;13.348;2024-01-15T08:36:25;2.50;78.46
20862;DHT22;10591;52.532;13.348;2024-01-15T08:38:57;2.55;78.68
20862;DHT22;10591;52.532;13.348;2024-01-15T08:41:28;2.54;78.49
20862;DHT22;10591;52.532;13.348;2024-01-15T08:43:58;2.45;78.40
20862;DHT22;10591;52.532;13.348;2024-01-15T08:46:29;2.42;78.41
20862;DHT22;10591;52.532;13.348;2024-01-15T08:48:59;2.53;78.13
20862;DHT22;10591;52.532;13.348;2024-01-15T08:51:30;2.48;78.31
20862;DHT22;10591;52.532;13.348;2024-01-15T08:54:01;2.45;78.40
20862;DHT22;10591;52.532;13.348;2024-01-15T08:56:31;2.46;78.50
20862;DHT22;10591;52.532;13.348;2024-01-15T08:59:02;2.50;78.31
20862;DHT22;10591;52.532;13.348;2024-01-15T09:01:33;2.52;78.54
20862;DHT22;10591;52.532;13.348;2024-01-15T09:04:04;2.52;78.62
20862;DHT22;10591;52.532;13.348;2024-01-15T09:06:37;2.54;78.92
20862;DHT22;10591;52.532;13.348;2024-01-15T09:09:08;2.54;79.06
20862;DHT22;10591;52.532;13.348;2024-01-15T09:11:40;2.56;78.62
20862;DHT22;10591;52.532;13.348;2024-01-15T09:14:10;2.54;78.59
20862;DHT22;10591;52.532;13.348;2024-01-15T09:16:42;2.55;78.99
20862;DHT22;10591;52.532;13.348;2024-01-15T09:19:14;2.46;79.07
20862;DHT22;10591;52.532;13.348;2024-01-15T09:21:45;2.60;78.57
20862;DHT22;10591;52.532;13.348;2024-01-15T09:24:16;2.61;78.81
20862;DHT22;10591;52.532;13.348;2024-01-15T09:26:48;2.72;78.33
20862;DHT22;10591;52.532;13.348;2024-01-15T09:29:18;2.79;78.28
20862;DHT22;10591;52.532;13.348;2024-01-15T09:31:50;2.68;78.55
20862;DHT22;10591;52.532;13.348;2024-01-15T09:34:22;2.62;78.70
20862;DHT22;10591;52.532;13.348;2024-01-15T09:36:52;2.78;78.04
20862;DHT22;10591;52.532;13.348;2024-01-15T09:39:23;2.72;78.41
20862;DHT22;10591;52.532;13.348;2024-01-15T09:41:54;2.78;78.42
20862;DHT22;10591;52.532;13.348;2024-01-15T09:44:26;2.84;77.84
20862;DHT22;10591;52.532;13.348;2024-01-15T09:46:59;2.85;77.88
20862;DHT22;10591;52.532;13.348;2024-01-15T09:49:30;2.86;77.43
20862;DHT22;10591;52.532;13.348;2024-01-15T09:52:01;2.93;77.13
20862;DHT22;10591;52.532;13.348;2024-01-15T09:54:37;2.90;77.78
20862;DHT22;10591;52.532;13.348;2024-01-15T09:57:08;2.96;77.48
20862;DHT22;10591;52.532;13.348;2024-01-15T09:59:40;3.04;77.95
20862;DHT22;10591;52.532;13.348;2024-01-15T10:02:13;3.15;77.37
20862;DHT22;10591;52.532;13.348;2024-01-15T10:04:46;3.04;77.25
20862;DHT22;10591;52.532;13.348;2024-01-15T10:07:19;3.13;76.86
20862;DHT22;10591;52.532;13.348;2024-01-15T10:09:51;3.08;77.30
20862;DHT22;10591;52.532;13.348;2024-01-15T10:12:23;3.06;76.94
20862;DHT22;10591;52.532;13.348;2024-01-15T10:14:56;3.08;77.19
20862;DHT22;10591;52.532;13.348;2024-01-15T10:17:28;2.92;77.20
20862;DHT22;10591;52.532;13.348;2024-01-15T10:19:59;3.04;77.15
20862;DHT22;10591;52.532;13.348;2024-01-15T10:25:02;3.26;76.25
20862;DHT22;10591;52.532;13.348;2024-01-15T10:27:33;3.46;75.31
20862;DHT22;10591;52.532;13.348;2024-01-15T10:30:04;3.45;75.99
20862;DHT22;10591;52.532;13.348;2024-01-15T10:32:37;3.56;75.07
20862;DHT22;10591;52.532;13.348;2024-01-15T10:35:08;3.51;74.77
20862;DHT22;10591;52.532;13.348;2024-01-15T10:37:39;3.33;75.74
20862;DHT22;10591;52.532;13.348;2024-01-15T10:40:11;3.24;75.73
20862;DHT22;10591;52.532;13.348;2024-01-15T10:42:43;3.12;75.83
20862;DHT22;10591;52.532;13.348;2024-01-15T10:45:14;3.14;76.37
20862;DHT22;10591;52.532;13.348;2024-01-15T10:47:45;3.14;76.73
20862;DHT22;10591;52.532;13.348;2024-01-15T10:50:16;3.03;76.52
20862;DHT22;10591;52.532;13.348;2024-01-15T10:52:47;3.03;76.94
20862;DHT22;10591;52.532;13.348;2024-01-15T10:55:18;2.96;76.58
20862;DHT22;10591;52.532;13.348;2024-01-15T10:57:49;3.03;76.59
20862;DHT22;10591;52.532;13.348;2024-01-15T11:00:21;3.06;76.47
20862;DHT22;10591;52.532;13.348;2024-01-15T11:02:51;3.23;76.04
20862;DHT22;10591;52.532;13.348;2024-01-15T11:05:25;3.29;76.01
20862;DHT22;10591;52.532;13.348;2024-01-15T11:07:58;3.38;75.58
20862;DHT22;10591;52.532;13.348;2024-01-15T11:10:47;3.38;75.66
20862;DHT22;10591;52.532;13.348;2024-01-15T11:13:39;3.18;75.89
20862;DHT22;10591;52.532;13.348;2024-01-15T11:16:04;3.24;75.75
20862;DHT22;10591;52.532;13.348;2024-01-15T11:21:29;3.08;76.82
20862;DHT22;10591;52.532;13.348;2024-01-15T11:24:01;3.02;77.13
20862;DHT22;10591;52.532;13.348;2024-01-15T11:26:46;3.04;77.62
20862;DHT22;10591;52.532;13.348;2024-01-15T11:29:33;3.00;77.85
20862;DHT22;10591;52.532;13.348;2024-01-15T11:32:06;2.92;78.17
20862;DHT22;10591;52.532;13.348;2024-01-15T11:34:58;2.96;78.34
20862;DHT22;10591;52.532;13.348;2024-01-15T11:43:06;2.84;79.09
20862;DHT22;10591;52.532;13.348;2024-01-15T11:45:41;2.78;79.94
20862;DHT22;10591;52.532;13.348;2024-01-15T11:48:14;2.69;80.42
20862;DHT22;10591;52.532;13.348;2024-01-15T11:50:49;2.52;81.82
20862;DHT22;10591;52.532;13.348;2024-01-15T11:56:18;2.10;84.72
20862;DHT22;10591;52.532;13.348;2024-01-15T11:58:52;2.09;84.97
20862;DHT22;10591;52.532;13.348;2024-01-15T12:01:23;1.92;85.53
20862;DHT22;10591;52.532;13.348;2024-01-15T12:03:55;1.92;85.77
20862;DHT22;10591;52.532;13.348;2024-01-15T12:06:27;1.98;84.81
20862;DHT22;10591;52.532;13.348;2024-01-15T12:09:08;2.08;84.92
20862;DHT22;10591;52.532;13.348;2024-01-15T12:11:42;2.06;84.77
20862;DHT22;10591;52.532;13.348;2024-01-15T12:14:15;2.14;84.56
20862;DHT22;10591;52.532;13.348;2024-01-15T12:16:47;2.07;84.20
20862;DHT22;10591;52.532;13.348;2024-01-15T12:19:20;2.00;84.75
20862;DHT22;10591;52.532;13.348;2024-01-15T12:21:54;2.02;84.24
20862;DHT22;10591;52.532;13.348;2024-01-15T12:24:25;2.10;83.42
20862;DHT22;10591;52.532;13.348;2024-01-15T12:26:57;2.08;84.20
20862;DHT22;10591;52.532;13.348;2024-01-15T12:29:28;2.18;83.64
20862;DHT22;10591;52.532;13.348;2024-01-15T12:32:00;2.10;83.49
20862;DHT22;10591;52.532;13.348;2024-01-15T12:34:31;2.11;83.39
20862;DHT22;10591;52.532;13.348;2024-01-15T12:37:06;2.09;83.74
20862;DHT22;10591;52.532;13.348;2024-01-15T12:39:38;2.02;84.05
20862;DHT22;10591;52.532;13.348;2024-01-15T12:42:09;1.98;84.31
20862;DHT22;10591;52.532;13.348;2024-01-15T12:44:42;1.96;84.93
20862;DHT22;10591;52.532;13.348;2024-01-15T12:47:13;1.79;85.65
20862;DHT22;10591;52.532;13.348;2024-01-15T12:49:56;1.79;86.39
20862;DHT22;10591;52.532;13.348;2024-01-15T12:52:28;1.89;85.94
20862;DHT22;10591;52.532;13.348;2024-01-15T12:55:01;1.81;86.31
20862;DHT22;10591;52.532;13.348;2024-01-15T12:57:35;1.92;86.20
20862;DHT22;10591;52.532;13.348;2024-01-15T13:00:07;1.93;85.44
20862;DHT22;10591;52.532;13.348;2024-01-15T13:02:40;1.94;85.63
20862;DHT22;10591;52.532;13.348;2024-01-15T13:05:13;2.02;85.59
20862;DHT22;10591;52.532;13.348;2024-01-15T13:07:49;2.04;85.35
20862;DHT22;10591;52.532;13.348;2024-01-15T13:10:19;2.10;85.17
20862;DHT22;10591;52.532;13.348;2024-01-15T13:12:52;2.09;85.42
20862;DHT22;10591;52.532;13.348;2024-01-15T13:15:23;1.97;85.07
20862;DHT22;10591;52.532;13.348;2024-01-15T13:17:54;1.98;85.50
20862;DHT22;10591;52.532;13.348;2024-01-15T13:20:25;2.10;85.02
20862;DHT22;10591;52.532;13.348;2024-01-15T13:22:56;2.17;84.65
20862;DHT22;10591;52.532;13.348;2024-01-15T13:25:26;2.06;84.75
20862;DHT22;10591;52.532;13.348;2024-01-15T13:27:57;2.14;84.67
20862;DHT22;10591;52.532;13.348;2024-01-15T13:30:28;2.22;84.40
20862;DHT22;10591;52.532;13.348;2024-01-15T13:33:00;1.98;85.07
20862;DHT22;10591;52.532;13.348;2024-01-15T13:35:33;2.02;84.28
20862;DHT22;10591;52.532;13.348;2024-01-15T13:38:06;2.15;84.53
20862;DHT22;10591;52.532;13.348;2024-01-15T13:40:38;1.99;84.18
20862;DHT22;10591;52.532;13.348;2024-01-15T13:43:09;1.94;84.92
20862;DHT22;10591;52.532;13.348;2024-01-15T13:45:41;4.02;87.81
20862;DHT22;10591;52.532;13.348;2024-01-15T13:48:12;4.87;82.34
20862;DHT22;10591;52.532;13.348;2024-01-15T13:50:43;3.47;79.93
20862;DHT22;10591;52.532;13.348;2024-01-15T13:53:13;2.88;81.19
20862;DHT22;10591;52.532;13.348;2024-01-15T13:55:44;2.63;81.78
20862;DHT22;10591;52.532;13.348;2024-01-15T13:58:15;2.52;82.42
20862;DHT22;10591;52.532;13.348;2024-01-15T14:00:47;2.42;82.35
20862;DHT22;10591;52.532;13.348;2024-01-15T14:03:18;2.34;82.95
20862;DHT22;10591;52.532;13.348;2024-01-15T14:05:49;2.26;82.76
20862;DHT22;10591;52.532;13.348;2024-01-15T14:08:20;2.28;82.34
20862;DHT22;10591;52.532;13.348;2024-01-15T14:10:51;2.29;82.19
20862;DHT22;10591;52.532;13.348;2024-01-15T14:13:23;2.16;82.29
20862;DHT22;10591;52.532;13.348;2024-01-15T14:15:54;2.03;82.47
20862;DHT22;10591;52.532;13.348;2024-01-15T14:18:27;2.18;82.00
20862;DHT22;10591;52.532;13.348;2024-01-15T14:20:59;1.95;82.31
20862;DHT22;10591;52.532;13.348;2024-01-15T14:23:31;2.13;81.89
20862;DHT22;10591;52.532;13.348;2024-01-15T14:26:01;2.06;82.98
20862;DHT22;10591;52.532;13.348;2024-01-15T14:28:34;2.04;82.61
20862;DHT22;10591;52.532;13.348;2024-01-15T14:31:06;2.06;82.31
20862;DHT22;10591;52.532;13.348;2024-01-15T14:33:37;1.90;82.21
20862;DHT22;10591;52.532;13.348;2024-01-15T14:36:09;2.06;81.72
20862;DHT22;10591;52.532;13.348;2024-01-15T14:38:40;2.04;81.50
20862;DHT22;10591;52.532;13.348;2024-01-15T14:41:11;2.00;81.73
20862;DHT22;10591;52.532;13.348;2024-01-15T14:43:42;1.94;82.26
20862;DHT22;10591;52.532;13.348;2024-01-15T14:46:15;1.98;81.91
20862;DHT22;10591;52.532;13.348;2024-01-15T14:48:46;1.90;82.42
20862;DHT22;10591;52.532;13.348;2024-01-15T14:51:17;1.99;81.44
20862;DHT22;10591;52.532;13.348;2024-01-15T14:53:48;1.87;81.12
20862;DHT22;10591;52.532;13.348;2024-01-15T14:56:20;1.84;81.46
20862;DHT22;10591;52.532;13.348;2024-01-15T14:58:51;1.88;81.51
20862;DHT22;10591;52.532;13.348;2024-01-15T15:01:22;1.89;81.68
20862;DHT22;10591;52.532;13.348;2024-01-15T15:03:53;1.91;81.80
20862;DHT22;10591;52.532;13.348;2024-01-15T15:06:24;1.78;81.77
20862;DHT22;10591;52.532;13.348;2024-01-15T15:08:58;1.80;82.03
20862;DHT22;10591;52.532;13.348;2024-01-15T15:11:29;1.88;81.88
20862;DHT22;10591;52.532;13.348;2024-01-15T15:14:00;1.72;82.21
20862;DHT22;10591;52.532;13.348;2024-01-15T15:16:32;1.74;82.03
20862;DHT22;10591;52.532;13.348;2024-01-15T15:19:04;1.70;82.43
20862;DHT22;10591;52.532;13.348;2024-01-15T15:21:34;1.72;81.94
20862;DHT22;10591;52.532;13.348;2024-01-15T15:24:08;1.74;81.87
20862;DHT22;10591;52.532;13.348;2024-01-15T15:26:38;1.61;82.33
20862;DHT22;10591;52.532;13.348;2024-01-15T15:29:09;1.60;82.75
20862;DHT22;10591;52.532;13.348;2024-01-15T15:31:40;1.62;83.14
20862;DHT22;10591;52.532;13.348;2024-01-15T15:34:11;1.60;83.14
20862;DHT22;10591;52.532;13.348;2024-01-15T15:36:44;1.56;84.06
20862;DHT22;10591;52.532;13.348;2024-01-15T15:39:14;1.58;84.40
20862;DHT22;10591;52.532;13.348;2024-01-15T15:41:49;1.49;85.22
20862;DHT22;10591;52.532;13.348;2024-01-15T15:44:20;1.47;85.43
20862;DHT22;10591;52.532;13.348;2024-01-15T15:46:50;1.34;85.93
20862;DHT22;10591;52.532;13.348;2024-01-15T15:49:21;1.38;86.27
20862;DHT22;10591;52.532;13.348;2024-01-15T15:51:52;1.50;86.23
20862;DHT22;10591;52.532;13.348;2024-01-15T15:54:24;1.40;86.54
20862;DHT22;10591;52.532;13.348;2024-01-15T15:56:55;1.34;86.32
20862;DHT22;10591;52.532;13.348;2024-01-15T15:59:27;1.41;86.21
20862;DHT22;10591;52.532;13.348;2024-01-15T16:02:01;1.36;86.22
20862;DHT22;10591;52.532;13.348;2024-01-15T16:04:34;1.36;85.81
20862;DHT22;10591;52.532;13.348;2024-01-15T16:07:05;1.23;86.17
20862;DHT22;10591;52.532;13.348;2024-01-15T16:09:38;1.22;86.40